KMSP/MSP METAR and TAF weather

Enter ICAO airport designator
Station Type Date Time Source
KMSP METAR 2019/02/22 22:53 UTC NOAA

KMSP 222253Z 09006KT 8SM BKN100 OVC250 M03/M09 A3030 RMK AO2 SLP276 T10331094


Station Type Date Time Source
KMSP Decoded METAR 2019/02/22 22:53 UTC NOAA

MINNEAPOLIS-ST PAUL INTERNATIONAL , MN, United States (KMSP) 44-52N 93-13W 265M
Feb 22, 2019 - 05:53 PM EST / 2019.02.22 2253 UTC
Wind: from the E (090 degrees) at 7 MPH (6 KT):0
Visibility: 8 mile(s):0
Sky conditions: overcast
Temperature: 26.1 F (-3.3 C)
Windchill: 17 F (-8 C):1
Dew Point: 15.1 F (-9.4 C)
Relative Humidity: 62%
Pressure (altimeter): 30.3 in. Hg (1026 hPa)
ob: KMSP 222253Z 09006KT 8SM BKN100 OVC250 M03/M09 A3030 RMK AO2 SLP276 T10331094
cycle: 23

Station Type Date Time Source
KMSP TAF 2019/02/22 21:09 UTC NOAA

TAF
AMD KMSP 222107Z 2221/2324 09006KT P6SM SCT025 BKN100
FM230300 11007KT P6SM OVC030
FM230500 10005KT 6SM -SN OVC050
FM230600 11006KT 2SM -SN OVC015
FM231200 12007KT 3SM -SN OVC009 PROB30 2312/2315 -FZDZ
FM231500 11005KT P6SM OVC008


Example: see airport list